Terminal Aerodrome Forecast
Issued by NWS Charleston, WV

Current Version | Previous Version | Graphics & Text | Print | Product List | Glossary On
Versions: 1 2 3 4 5 6 7 8 9 10 11 12 13 14 15 16 17 18 19 20 21 22 23
236
FTUS41 KRLX 201739 AAB
TAFCRW
TAF AMD
KCRW 201739Z 2018/2118 VRB03KT P6SM SCT050
     FM202000 VRB03KT P6SM VCTS BKN050CB
     FM210000 VRB03KT P6SM SCT050
     FM211700 18006KT P6SM VCTS BKN025CB=

USA.gov is the U.S. government's official web portal to all federal, state and local government web resources and services.